| time (UTC) | temp F | wind direction | speed MPH | gust MPH | rain 1hr in | rain 24hr in | rain mn in | humidity % | barometer mb |
| 20260905195805 | 66 | 257 | 2.0 | 3.0 | 0.00 | 0.10 | 0.10 | 67 | 1020.3 |
| 20260905195306 | 66 | 252 | 2.0 | 3.0 | 0.00 | 0.10 | 0.10 | 65 | 1020.2 |
| 20260905175805 | 67 | 275 | 0.0 | 0.0 | 0.00 | 0.10 | 0.10 | 66 | 1019.3 |
| 20260905165804 | 74 | 285 | 5.0 | 12.0 | 0.00 | 0.10 | 0.10 | 50 | 1018.6 |
| 20260905165306 | 74 | 272 | 5.0 | 12.0 | 0.00 | 0.10 | 0.10 | 50 | 1018.5 |
| 20260905155306 | 77 | 277 | 8.0 | 15.0 | 0.00 | 0.10 | 0.10 | 47 | 1018.2 |
| 20260905145306 | 77 | 253 | 7.0 | 14.0 | 0.00 | 0.10 | 0.10 | 48 | 1017.8 |
| 20260905135804 | 77 | 282 | 7.0 | 15.0 | 0.00 | 0.10 | 0.10 | 46 | 1017.7 |
| 20260905135306 | 77 | 275 | 7.0 | 12.0 | 0.00 | 0.10 | 0.10 | 48 | 1017.9 |
| 20260905125306 | 75 | 271 | 6.0 | 14.0 | 0.00 | 0.10 | 0.10 | 54 | 1018.1 |
| 20260905115804 | 72 | 252 | 5.0 | 12.0 | 0.00 | 0.10 | 0.10 | 65 | 1018.3 |
| 20260905115306 | 72 | 256 | 5.0 | 12.0 | 0.00 | 0.10 | 0.10 | 65 | 1018.3 |
| 20260905105306 | 69 | 270 | 9.0 | 15.0 | 0.00 | 0.10 | 0.10 | 71 | 1018.9 |
| 20260905095805 | 65 | 251 | 6.0 | 14.0 | 0.00 | 0.10 | 0.10 | 80 | 1018.9 |
| 20260905085804 | 61 | 258 | 2.0 | 10.0 | 0.03 | 0.10 | 0.10 | 88 | 1019.3 |
| 20260905085306 | 60 | 246 | 6.0 | 10.0 | 0.04 | 0.10 | 0.10 | 88 | 1019.4 |
| 20260905065804 | 61 | 262 | 0.0 | 1.0 | 0.02 | 0.02 | 0.02 | 81 | 1018.7 |
| 20260905065306 | 62 | 260 | 0.0 | 8.0 | 0.01 | 0.01 | 0.01 | 79 | 1018.6 |
| 20260905055805 | 66 | 287 | 4.0 | 17.0 | 0.00 | 0.00 | 0.00 | 67 | 1017.8 |
| 20260905045804 | 68 | 289 | 7.0 | 17.0 | 0.00 | 0.00 | 0.00 | 62 | 1016.5 |
| 20260905045306 | 68 | 282 | 6.0 | 13.0 | 0.00 | 0.00 | 0.00 | 61 | 1016.5 |
| 20260905025804 | 71 | 294 | 4.0 | 14.0 | 0.00 | 0.00 | 0.00 | 63 | 1013.2 |
| 20260905025306 | 71 | 302 | 5.0 | 14.0 | 0.00 | 0.00 | 0.00 | 63 | 1013.1 |
| 20260904235805 | 70 | 265 | 2.0 | 6.0 | 0.00 | 0.00 | 0.00 | 63 | 1011.5 |
| 20260904225306 | 67 | 205 | 0.0 | 0.0 | 0.00 | 0.00 | 0.00 | 72 | 1011.1 |
| 20260904215804 | 68 | 205 | 1.0 | 2.0 | 0.00 | 0.00 | 0.00 | 67 | 1011.1 |
| 20260904205804 | 67 | 205 | 0.0 | 0.0 | 0.00 | 0.00 | 0.00 | 72 | 1011.0 |
| 20260904205306 | 68 | 205 | 0.0 | 0.0 | 0.00 | 0.00 | 0.00 | 72 | 1011.0 |